sensor_id;sensor_type;location;lat;lon;timestamp;pressure;altitude;pressure_sealevel;temperature;humidity
10958;BME280;5531;42.570;23.676;2023-02-23T00:00:56;91812.56;;;6.54;83.82
10958;BME280;5531;42.570;23.676;2023-02-23T00:03:25;91810.59;;;6.56;83.77
10958;BME280;5531;42.570;23.676;2023-02-23T00:05:54;91813.25;;;6.48;83.67
10958;BME280;5531;42.570;23.676;2023-02-23T00:08:23;91812.53;;;6.39;83.40
10958;BME280;5531;42.570;23.676;2023-02-23T00:10:58;91811.63;;;6.32;83.64
10958;BME280;5531;42.570;23.676;2023-02-23T00:13:27;91816.88;;;6.24;83.83
10958;BME280;5531;42.570;23.676;2023-02-23T00:15:56;91798.97;;;6.29;83.50
10958;BME280;5531;42.570;23.676;2023-02-23T00:18:25;91802.47;;;6.36;83.18
10958;BME280;5531;42.570;23.676;2023-02-23T00:21:05;91807.34;;;6.39;82.91
10958;BME280;5531;42.570;23.676;2023-02-23T00:23:34;91810.75;;;6.40;82.91
10958;BME280;5531;42.570;23.676;2023-02-23T00:26:06;91802.75;;;6.41;82.87
10958;BME280;5531;42.570;23.676;2023-02-23T00:28:35;91813.78;;;6.43;82.36
10958;BME280;5531;42.570;23.676;2023-02-23T00:31:06;91812.75;;;6.53;81.97
10958;BME280;5531;42.570;23.676;2023-02-23T00:33:34;91815.00;;;6.56;82.15
10958;BME280;5531;42.570;23.676;2023-02-23T00:36:05;91806.94;;;6.66;82.00
10958;BME280;5531;42.570;23.676;2023-02-23T00:38:35;91812.22;;;6.72;81.32
10958;BME280;5531;42.570;23.676;2023-02-23T00:41:09;91808.00;;;6.71;81.70
10958;BME280;5531;42.570;23.676;2023-02-23T00:43:40;91809.97;;;6.69;81.68
10958;BME280;5531;42.570;23.676;2023-02-23T00:46:12;91810.59;;;6.71;81.61
10958;BME280;5531;42.570;23.676;2023-02-23T00:48:42;91806.41;;;6.70;81.25
10958;BME280;5531;42.570;23.676;2023-02-23T00:51:11;91801.28;;;6.62;80.95
10958;BME280;5531;42.570;23.676;2023-02-23T00:53:40;91801.97;;;6.56;81.44
10958;BME280;5531;42.570;23.676;2023-02-23T00:56:13;91805.72;;;6.53;81.34
10958;BME280;5531;42.570;23.676;2023-02-23T00:58:42;91806.91;;;6.51;80.88
10958;BME280;5531;42.570;23.676;2023-02-23T01:01:12;91804.13;;;6.52;80.78
10958;BME280;5531;42.570;23.676;2023-02-23T01:03:41;91803.50;;;6.50;81.41
10958;BME280;5531;42.570;23.676;2023-02-23T01:06:12;91802.06;;;6.48;81.36
10958;BME280;5531;42.570;23.676;2023-02-23T01:08:43;91807.44;;;6.46;81.48
10958;BME280;5531;42.570;23.676;2023-02-23T01:11:17;91807.00;;;6.42;80.92
10958;BME280;5531;42.570;23.676;2023-02-23T01:13:48;91811.56;;;6.17;82.12
10958;BME280;5531;42.570;23.676;2023-02-23T01:16:21;91802.06;;;6.10;81.93
10958;BME280;5531;42.570;23.676;2023-02-23T01:18:53;91800.06;;;5.97;83.08
10958;BME280;5531;42.570;23.676;2023-02-23T01:21:24;91804.44;;;5.88;83.19
10958;BME280;5531;42.570;23.676;2023-02-23T01:23:53;91804.00;;;5.84;83.50
10958;BME280;5531;42.570;23.676;2023-02-23T01:26:26;91802.50;;;5.90;83.46
10958;BME280;5531;42.570;23.676;2023-02-23T01:28:56;91803.81;;;5.86;83.83
10958;BME280;5531;42.570;23.676;2023-02-23T01:31:28;91809.28;;;5.99;83.89
10958;BME280;5531;42.570;23.676;2023-02-23T01:33:59;91805.75;;;6.15;83.13
10958;BME280;5531;42.570;23.676;2023-02-23T01:36:31;91799.06;;;6.21;83.29
10958;BME280;5531;42.570;23.676;2023-02-23T01:39:01;91800.31;;;6.25;83.07
10958;BME280;5531;42.570;23.676;2023-02-23T01:41:35;91807.75;;;6.28;82.45
10958;BME280;5531;42.570;23.676;2023-02-23T01:44:57;91802.91;;;6.25;82.53
10958;BME280;5531;42.570;23.676;2023-02-23T01:46:56;91810.72;;;6.25;83.18
10958;BME280;5531;42.570;23.676;2023-02-23T01:49:28;91804.44;;;6.19;82.87
10958;BME280;5531;42.570;23.676;2023-02-23T01:52:02;91798.75;;;6.16;83.29
10958;BME280;5531;42.570;23.676;2023-02-23T01:54:34;91800.84;;;5.97;84.04
10958;BME280;5531;42.570;23.676;2023-02-23T01:57:11;91800.00;;;6.05;84.29
10958;BME280;5531;42.570;23.676;2023-02-23T01:59:42;91797.56;;;6.03;83.89
10958;BME280;5531;42.570;23.676;2023-02-23T02:02:12;91803.59;;;5.96;84.80
10958;BME280;5531;42.570;23.676;2023-02-23T02:04:42;91801.66;;;5.98;85.17
10958;BME280;5531;42.570;23.676;2023-02-23T02:07:11;91804.06;;;5.99;85.61
10958;BME280;5531;42.570;23.676;2023-02-23T02:09:42;91798.88;;;5.99;85.36
10958;BME280;5531;42.570;23.676;2023-02-23T02:12:34;91796.63;;;5.96;86.20
10958;BME280;5531;42.570;23.676;2023-02-23T02:15:05;91791.13;;;5.91;86.25
10958;BME280;5531;42.570;23.676;2023-02-23T02:17:46;91788.84;;;5.88;86.48
10958;BME280;5531;42.570;23.676;2023-02-23T02:20:46;91785.34;;;5.81;86.75
10958;BME280;5531;42.570;23.676;2023-02-23T02:23:49;91785.56;;;5.71;87.11
10958;BME280;5531;42.570;23.676;2023-02-23T02:26:29;91783.44;;;5.51;87.89
10958;BME280;5531;42.570;23.676;2023-02-23T02:29:27;91777.78;;;5.48;88.55
10958;BME280;5531;42.570;23.676;2023-02-23T02:38:32;91780.66;;;5.53;88.49
10958;BME280;5531;42.570;23.676;2023-02-23T02:41:12;91777.00;;;5.39;89.49
10958;BME280;5531;42.570;23.676;2023-02-23T02:43:47;91773.53;;;5.47;88.63
10958;BME280;5531;42.570;23.676;2023-02-23T02:46:21;91781.00;;;5.50;88.40
10958;BME280;5531;42.570;23.676;2023-02-23T02:48:58;91777.44;;;5.51;88.63
10958;BME280;5531;42.570;23.676;2023-02-23T02:51:34;91779.91;;;5.44;89.17
10958;BME280;5531;42.570;23.676;2023-02-23T02:54:17;91770.72;;;5.33;89.78
10958;BME280;5531;42.570;23.676;2023-02-23T02:56:52;91774.44;;;5.31;90.45
10958;BME280;5531;42.570;23.676;2023-02-23T02:59:23;91780.28;;;5.33;90.17
10958;BME280;5531;42.570;23.676;2023-02-23T03:02:05;91778.84;;;5.30;90.86
10958;BME280;5531;42.570;23.676;2023-02-23T03:04:46;91775.63;;;5.28;91.03
10958;BME280;5531;42.570;23.676;2023-02-23T03:07:33;91777.75;;;5.25;90.76
10958;BME280;5531;42.570;23.676;2023-02-23T03:10:25;91776.91;;;5.24;91.63
10958;BME280;5531;42.570;23.676;2023-02-23T03:13:17;91778.13;;;5.13;91.18
10958;BME280;5531;42.570;23.676;2023-02-23T03:16:14;91777.16;;;5.06;91.91
10958;BME280;5531;42.570;23.676;2023-02-23T03:19:09;91773.47;;;5.01;92.31
10958;BME280;5531;42.570;23.676;2023-02-23T03:21:59;91779.75;;;5.06;92.43
10958;BME280;5531;42.570;23.676;2023-02-23T03:24:48;91779.31;;;5.03;92.53
10958;BME280;5531;42.570;23.676;2023-02-23T03:27:43;91784.41;;;4.88;93.08
10958;BME280;5531;42.570;23.676;2023-02-23T03:30:30;91776.97;;;4.76;93.42
10958;BME280;5531;42.570;23.676;2023-02-23T03:33:27;91787.03;;;4.80;93.42
10958;BME280;5531;42.570;23.676;2023-02-23T03:36:14;91783.44;;;4.81;93.66
10958;BME280;5531;42.570;23.676;2023-02-23T03:39:00;91779.88;;;4.82;93.71
10958;BME280;5531;42.570;23.676;2023-02-23T03:41:44;91775.81;;;4.79;93.07
10958;BME280;5531;42.570;23.676;2023-02-23T03:44:35;91794.31;;;4.84;93.10
10958;BME280;5531;42.570;23.676;2023-02-23T03:47:23;91785.25;;;4.72;93.71
10958;BME280;5531;42.570;23.676;2023-02-23T03:50:08;91782.34;;;4.67;93.90
10958;BME280;5531;42.570;23.676;2023-02-23T03:52:53;91788.81;;;4.71;93.20
10958;BME280;5531;42.570;23.676;2023-02-23T03:55:38;91785.94;;;4.57;94.03
10958;BME280;5531;42.570;23.676;2023-02-23T03:58:24;91791.63;;;4.53;94.16
10958;BME280;5531;42.570;23.676;2023-02-23T04:01:12;91782.72;;;4.47;94.61
10958;BME280;5531;42.570;23.676;2023-02-23T04:03:56;91783.41;;;4.33;95.76
10958;BME280;5531;42.570;23.676;2023-02-23T04:06:42;91783.56;;;4.31;95.64
10958;BME280;5531;42.570;23.676;2023-02-23T04:09:24;91797.69;;;4.29;96.23
10958;BME280;5531;42.570;23.676;2023-02-23T04:12:09;91787.81;;;4.24;96.32
10958;BME280;5531;42.570;23.676;2023-02-23T04:14:56;91795.09;;;4.20;96.43
10958;BME280;5531;42.570;23.676;2023-02-23T04:17:28;91799.94;;;4.23;96.81
10958;BME280;5531;42.570;23.676;2023-02-23T04:19:57;91793.63;;;4.18;96.67
10958;BME280;5531;42.570;23.676;2023-02-23T04:22:26;91789.56;;;4.15;96.12
10958;BME280;5531;42.570;23.676;2023-02-23T04:24:55;91790.56;;;4.14;96.23
10958;BME280;5531;42.570;23.676;2023-02-23T04:27:24;91791.53;;;4.05;96.73
10958;BME280;5531;42.570;23.676;2023-02-23T04:29:53;91788.63;;;4.08;97.39
10958;BME280;5531;42.570;23.676;2023-02-23T04:32:22;91789.75;;;4.14;97.30
10958;BME280;5531;42.570;23.676;2023-02-23T04:34:54;91802.69;;;4.22;96.55
10958;BME280;5531;42.570;23.676;2023-02-23T04:37:23;91799.13;;;4.23;96.13
10958;BME280;5531;42.570;23.676;2023-02-23T04:39:52;91793.94;;;4.23;96.42
10958;BME280;5531;42.570;23.676;2023-02-23T04:42:21;91802.22;;;4.18;96.48
10958;BME280;5531;42.570;23.676;2023-02-23T04:44:50;91798.34;;;4.22;95.95
10958;BME280;5531;42.570;23.676;2023-02-23T04:47:19;91806.75;;;4.16;96.72
10958;BME280;5531;42.570;23.676;2023-02-23T04:49:48;91802.06;;;4.20;96.61
10958;BME280;5531;42.570;23.676;2023-02-23T04:52:20;91804.78;;;4.27;95.29
10958;BME280;5531;42.570;23.676;2023-02-23T04:54:49;91801.88;;;4.30;95.39
10958;BME280;5531;42.570;23.676;2023-02-23T04:57:18;91807.06;;;4.30;95.17
10958;BME280;5531;42.570;23.676;2023-02-23T04:59:47;91803.03;;;4.27;95.11
10958;BME280;5531;42.570;23.676;2023-02-23T05:02:16;91807.56;;;4.25;95.33
10958;BME280;5531;42.570;23.676;2023-02-23T05:04:45;91807.38;;;4.27;95.64
10958;BME280;5531;42.570;23.676;2023-02-23T05:07:14;91802.72;;;4.30;95.44
10958;BME280;5531;42.570;23.676;2023-02-23T05:09:46;91799.78;;;4.25;95.69
10958;BME280;5531;42.570;23.676;2023-02-23T05:12:15;91796.88;;;4.20;95.89
10958;BME280;5531;42.570;23.676;2023-02-23T05:14:44;91801.25;;;4.19;95.61
10958;BME280;5531;42.570;23.676;2023-02-23T05:17:13;91794.91;;;4.14;95.55
10958;BME280;5531;42.570;23.676;2023-02-23T05:19:42;91806.13;;;4.14;96.39
10958;BME280;5531;42.570;23.676;2023-02-23T05:22:11;91812.75;;;4.09;96.64
10958;BME280;5531;42.570;23.676;2023-02-23T05:24:40;91814.06;;;4.13;96.74
10958;BME280;5531;42.570;23.676;2023-02-23T05:27:12;91811.28;;;4.22;96.85
10958;BME280;5531;42.570;23.676;2023-02-23T05:29:42;91816.47;;;4.22;96.67
10958;BME280;5531;42.570;23.676;2023-02-23T05:32:12;91815.47;;;4.32;96.10
10958;BME280;5531;42.570;23.676;2023-02-23T05:34:40;91820.66;;;4.32;95.93
10958;BME280;5531;42.570;23.676;2023-02-23T05:37:09;91808.53;;;4.32;96.65
10958;BME280;5531;42.570;23.676;2023-02-23T05:39:38;91819.38;;;4.36;96.38
10958;BME280;5531;42.570;23.676;2023-02-23T05:42:08;91819.84;;;4.39;96.42
10958;BME280;5531;42.570;23.676;2023-02-23T05:44:39;91818.56;;;4.44;96.40
10958;BME280;5531;42.570;23.676;2023-02-23T05:47:08;91818.72;;;4.42;96.35
10958;BME280;5531;42.570;23.676;2023-02-23T05:49:38;91828.13;;;4.43;96.52
10958;BME280;5531;42.570;23.676;2023-02-23T05:52:07;91828.13;;;4.43;96.34
10958;BME280;5531;42.570;23.676;2023-02-23T05:54:36;91830.22;;;4.48;96.62
10958;BME280;5531;42.570;23.676;2023-02-23T05:57:05;91839.00;;;4.47;96.47
10958;BME280;5531;42.570;23.676;2023-02-23T05:59:34;91836.06;;;4.50;96.32
10958;BME280;5531;42.570;23.676;2023-02-23T06:02:06;91839.13;;;4.53;96.26
10958;BME280;5531;42.570;23.676;2023-02-23T06:04:35;91838.47;;;4.59;96.35
10958;BME280;5531;42.570;23.676;2023-02-23T06:07:04;91839.44;;;4.58;96.51
10958;BME280;5531;42.570;23.676;2023-02-23T06:09:33;91843.00;;;4.66;96.22
10958;BME280;5531;42.570;23.676;2023-02-23T06:12:02;91841.41;;;4.65;96.03
10958;BME280;5531;42.570;23.676;2023-02-23T06:14:31;91848.50;;;4.71;95.73
10958;BME280;5531;42.570;23.676;2023-02-23T06:17:01;91857.91;;;4.72;95.26
10958;BME280;5531;42.570;23.676;2023-02-23T06:19:33;91852.22;;;4.76;95.71
10958;BME280;5531;42.570;23.676;2023-02-23T06:22:02;91853.66;;;4.87;95.02
10958;BME280;5531;42.570;23.676;2023-02-23T06:24:31;91862.19;;;5.12;94.56
10958;BME280;5531;42.570;23.676;2023-02-23T06:27:00;91863.63;;;5.23;93.21
10958;BME280;5531;42.570;23.676;2023-02-23T06:29:30;91865.22;;;5.24;92.87
10958;BME280;5531;42.570;23.676;2023-02-23T06:31:59;91872.78;;;5.42;93.00
10958;BME280;5531;42.570;23.676;2023-02-23T06:34:28;91869.03;;;5.45;92.83
10958;BME280;5531;42.570;23.676;2023-02-23T06:37:01;91870.75;;;5.61;92.12
10958;BME280;5531;42.570;23.676;2023-02-23T06:39:31;91870.28;;;5.88;91.41
10958;BME280;5531;42.570;23.676;2023-02-23T06:42:00;91874.41;;;6.06;90.03
10958;BME280;5531;42.570;23.676;2023-02-23T06:44:29;91878.69;;;6.22;89.32
10958;BME280;5531;42.570;23.676;2023-02-23T06:47:00;91877.66;;;6.31;89.26
10958;BME280;5531;42.570;23.676;2023-02-23T06:49:30;91875.63;;;6.41;88.58
10958;BME280;5531;42.570;23.676;2023-02-23T06:52:02;91878.91;;;6.58;87.84
10958;BME280;5531;42.570;23.676;2023-02-23T06:54:31;91877.59;;;6.77;87.72
10958;BME280;5531;42.570;23.676;2023-02-23T06:57:00;91886.16;;;6.86;87.16
10958;BME280;5531;42.570;23.676;2023-02-23T06:59:29;91871.59;;;6.92;87.13
10958;BME280;5531;42.570;23.676;2023-02-23T07:01:58;91872.13;;;6.87;87.32
10958;BME280;5531;42.570;23.676;2023-02-23T07:04:27;91881.13;;;7.00;86.69
10958;BME280;5531;42.570;23.676;2023-02-23T07:06:57;91877.34;;;7.02;86.85
10958;BME280;5531;42.570;23.676;2023-02-23T07:09:28;91878.25;;;7.09;86.79
10958;BME280;5531;42.570;23.676;2023-02-23T07:11:58;91877.38;;;7.17;86.32
10958;BME280;5531;42.570;23.676;2023-02-23T07:14:29;91876.09;;;7.28;86.20
10958;BME280;5531;42.570;23.676;2023-02-23T07:16:58;91866.66;;;7.42;86.26
10958;BME280;5531;42.570;23.676;2023-02-23T07:19:27;91876.06;;;7.58;86.62
10958;BME280;5531;42.570;23.676;2023-02-23T07:21:56;91869.88;;;7.59;85.47
10958;BME280;5531;42.570;23.676;2023-02-23T07:24:28;91872.72;;;7.79;85.47
10958;BME280;5531;42.570;23.676;2023-02-23T07:26:57;91878.47;;;7.89;85.26
10958;BME280;5531;42.570;23.676;2023-02-23T07:29:26;91874.28;;;7.95;85.38
10958;BME280;5531;42.570;23.676;2023-02-23T07:31:55;91872.19;;;8.05;84.44
10958;BME280;5531;42.570;23.676;2023-02-23T07:34:24;91871.63;;;8.10;84.24
10958;BME280;5531;42.570;23.676;2023-02-23T07:36:53;91866.56;;;8.23;84.05
10958;BME280;5531;42.570;23.676;2023-02-23T07:39:22;91871.47;;;8.33;83.74
10958;BME280;5531;42.570;23.676;2023-02-23T07:41:54;91870.00;;;8.45;83.09
10958;BME280;5531;42.570;23.676;2023-02-23T07:44:23;91880.13;;;8.55;82.73
10958;BME280;5531;42.570;23.676;2023-02-23T07:46:52;91868.16;;;8.60;82.77
10958;BME280;5531;42.570;23.676;2023-02-23T07:49:22;91871.97;;;8.65;82.15
10958;BME280;5531;42.570;23.676;2023-02-23T07:51:51;91873.47;;;8.74;81.40
10958;BME280;5531;42.570;23.676;2023-02-23T07:54:20;91871.09;;;8.79;81.16
10958;BME280;5531;42.570;23.676;2023-02-23T07:56:50;91878.38;;;8.84;80.99
10958;BME280;5531;42.570;23.676;2023-02-23T07:59:21;91873.00;;;8.92;78.88
10958;BME280;5531;42.570;23.676;2023-02-23T08:01:50;91871.81;;;8.94;78.69
10958;BME280;5531;42.570;23.676;2023-02-23T08:04:19;91874.53;;;9.08;79.68
10958;BME280;5531;42.570;23.676;2023-02-23T08:06:48;91877.84;;;9.23;78.98
10958;BME280;5531;42.570;23.676;2023-02-23T08:09:17;91870.75;;;9.52;78.08
10958;BME280;5531;42.570;23.676;2023-02-23T08:11:46;91875.59;;;9.55;77.38
10958;BME280;5531;42.570;23.676;2023-02-23T08:14:15;91874.41;;;9.58;77.17
10958;BME280;5531;42.570;23.676;2023-02-23T08:16:50;91877.75;;;9.45;77.32
10958;BME280;5531;42.570;23.676;2023-02-23T08:19:20;91872.63;;;9.65;77.45
10958;BME280;5531;42.570;23.676;2023-02-23T08:21:49;91880.72;;;9.77;77.38
10958;BME280;5531;42.570;23.676;2023-02-23T08:24:18;91874.94;;;9.88;76.75
10958;BME280;5531;42.570;23.676;2023-02-23T08:26:47;91871.38;;;10.02;75.99
10958;BME280;5531;42.570;23.676;2023-02-23T08:29:17;91876.84;;;10.21;75.90
10958;BME280;5531;42.570;23.676;2023-02-23T08:31:47;91880.56;;;10.33;74.86
10958;BME280;5531;42.570;23.676;2023-02-23T08:34:19;91868.66;;;10.44;73.74
10958;BME280;5531;42.570;23.676;2023-02-23T08:36:48;91881.78;;;10.57;74.31
10958;BME280;5531;42.570;23.676;2023-02-23T08:39:18;91880.00;;;10.64;72.94
10958;BME280;5531;42.570;23.676;2023-02-23T08:41:48;91872.13;;;10.85;74.46
10958;BME280;5531;42.570;23.676;2023-02-23T08:44:17;91874.94;;;10.96;72.14
10958;BME280;5531;42.570;23.676;2023-02-23T08:46:46;91875.78;;;10.97;71.75
10958;BME280;5531;42.570;23.676;2023-02-23T08:49:15;91872.13;;;11.05;71.66
10958;BME280;5531;42.570;23.676;2023-02-23T08:51:47;91874.13;;;11.16;70.55
10958;BME280;5531;42.570;23.676;2023-02-23T08:54:16;91871.09;;;11.26;71.20
10958;BME280;5531;42.570;23.676;2023-02-23T08:56:45;91883.41;;;11.25;70.86
10958;BME280;5531;42.570;23.676;2023-02-23T08:59:14;91885.22;;;11.25;69.61
10958;BME280;5531;42.570;23.676;2023-02-23T09:01:43;91876.31;;;11.39;69.19
10958;BME280;5531;42.570;23.676;2023-02-23T09:04:12;91882.56;;;11.51;69.97
10958;BME280;5531;42.570;23.676;2023-02-23T09:06:46;91874.63;;;11.65;69.23
10958;BME280;5531;42.570;23.676;2023-02-23T09:09:15;91871.16;;;11.84;69.19
10958;BME280;5531;42.570;23.676;2023-02-23T09:11:44;91880.44;;;11.94;68.26
10958;BME280;5531;42.570;23.676;2023-02-23T09:14:13;91884.66;;;12.01;66.67
10958;BME280;5531;42.570;23.676;2023-02-23T09:16:42;91885.44;;;12.08;66.71
10958;BME280;5531;42.570;23.676;2023-02-23T09:19:12;91877.72;;;12.14;66.18
10958;BME280;5531;42.570;23.676;2023-02-23T09:21:42;91887.06;;;12.09;65.60
10958;BME280;5531;42.570;23.676;2023-02-23T09:24:14;91876.84;;;12.26;65.73
10958;BME280;5531;42.570;23.676;2023-02-23T09:26:44;91874.94;;;12.47;66.38
10958;BME280;5531;42.570;23.676;2023-02-23T09:29:13;91879.72;;;12.57;64.80
10958;BME280;5531;42.570;23.676;2023-02-23T09:31:43;91892.00;;;12.70;64.09
10958;BME280;5531;42.570;23.676;2023-02-23T09:34:12;91881.06;;;12.73;62.83
10958;BME280;5531;42.570;23.676;2023-02-23T09:36:41;91887.66;;;12.82;63.38
10958;BME280;5531;42.570;23.676;2023-02-23T09:39:10;91885.34;;;12.92;63.26
10958;BME280;5531;42.570;23.676;2023-02-23T09:42:09;91884.84;;;13.02;63.28
10958;BME280;5531;42.570;23.676;2023-02-23T09:44:59;91890.78;;;12.97;61.76
10958;BME280;5531;42.570;23.676;2023-02-23T09:47:36;91883.25;;;13.01;62.47
10958;BME280;5531;42.570;23.676;2023-02-23T09:50:15;91886.22;;;13.11;60.32
10958;BME280;5531;42.570;23.676;2023-02-23T09:52:49;91882.94;;;13.16;60.57
10958;BME280;5531;42.570;23.676;2023-02-23T09:55:20;91881.25;;;13.21;62.37
10958;BME280;5531;42.570;23.676;2023-02-23T09:57:53;91890.72;;;13.29;59.76
10958;BME280;5531;42.570;23.676;2023-02-23T10:00:25;91881.13;;;13.42;61.43
10958;BME280;5531;42.570;23.676;2023-02-23T10:03:16;91876.59;;;13.49;58.65
10958;BME280;5531;42.570;23.676;2023-02-23T10:05:52;91880.13;;;13.61;59.86
10958;BME280;5531;42.570;23.676;2023-02-23T10:08:37;91881.16;;;13.79;59.65
10958;BME280;5531;42.570;23.676;2023-02-23T10:11:23;91881.91;;;13.86;58.37
10958;BME280;5531;42.570;23.676;2023-02-23T10:14:14;91873.41;;;14.02;58.49
10958;BME280;5531;42.570;23.676;2023-02-23T10:16:58;91873.91;;;14.11;58.11
10958;BME280;5531;42.570;23.676;2023-02-23T10:19:33;91877.50;;;14.17;57.62
10958;BME280;5531;42.570;23.676;2023-02-23T10:22:08;91873.69;;;14.12;57.87
10958;BME280;5531;42.570;23.676;2023-02-23T10:24:39;91878.06;;;14.19;56.47
10958;BME280;5531;42.570;23.676;2023-02-23T10:27:14;91863.50;;;14.35;56.30
10958;BME280;5531;42.570;23.676;2023-02-23T10:29:50;91868.94;;;14.52;55.64
10958;BME280;5531;42.570;23.676;2023-02-23T10:32:24;91865.13;;;14.66;56.42
10958;BME280;5531;42.570;23.676;2023-02-23T10:34:55;91864.31;;;14.65;53.86
10958;BME280;5531;42.570;23.676;2023-02-23T10:37:24;91859.28;;;14.64;53.19
10958;BME280;5531;42.570;23.676;2023-02-23T10:39:54;91856.09;;;14.74;52.61
10958;BME280;5531;42.570;23.676;2023-02-23T10:42:25;91852.78;;;14.90;55.42
10958;BME280;5531;42.570;23.676;2023-02-23T10:44:59;91851.56;;;15.05;54.56
10958;BME280;5531;42.570;23.676;2023-02-23T10:47:30;91849.50;;;15.18;54.55
10958;BME280;5531;42.570;23.676;2023-02-23T10:50:01;91851.13;;;15.31;54.15
10958;BME280;5531;42.570;23.676;2023-02-23T10:52:34;91848.69;;;15.30;52.38
10958;BME280;5531;42.570;23.676;2023-02-23T10:55:19;91844.00;;;15.32;51.73
10958;BME280;5531;42.570;23.676;2023-02-23T10:58:01;91840.22;;;15.39;49.63
10958;BME280;5531;42.570;23.676;2023-02-23T11:00:34;91839.53;;;15.44;52.10
10958;BME280;5531;42.570;23.676;2023-02-23T11:03:16;91836.06;;;15.55;52.54
10958;BME280;5531;42.570;23.676;2023-02-23T11:05:47;91827.47;;;15.60;52.38
10958;BME280;5531;42.570;23.676;2023-02-23T11:08:25;91830.78;;;15.67;51.16
10958;BME280;5531;42.570;23.676;2023-02-23T11:11:19;91834.25;;;15.80;52.36
10958;BME280;5531;42.570;23.676;2023-02-23T11:13:51;91834.81;;;15.82;49.25
10958;BME280;5531;42.570;23.676;2023-02-23T11:16:23;91830.31;;;15.82;50.63
10958;BME280;5531;42.570;23.676;2023-02-23T11:18:55;91824.91;;;15.89;50.59
10958;BME280;5531;42.570;23.676;2023-02-23T11:21:26;91822.41;;;15.82;50.73
10958;BME280;5531;42.570;23.676;2023-02-23T11:24:01;91830.81;;;15.79;49.68
10958;BME280;5531;42.570;23.676;2023-02-23T11:26:37;91830.56;;;15.92;50.35
10958;BME280;5531;42.570;23.676;2023-02-23T11:29:14;91824.84;;;16.12;50.66
10958;BME280;5531;42.570;23.676;2023-02-23T11:31:52;91822.06;;;16.19;50.93
10958;BME280;5531;42.570;23.676;2023-02-23T11:34:28;91821.50;;;16.17;49.03
10958;BME280;5531;42.570;23.676;2023-02-23T11:37:03;91818.72;;;16.24;50.32
10958;BME280;5531;42.570;23.676;2023-02-23T11:39:33;91820.22;;;16.20;49.78
10958;BME280;5531;42.570;23.676;2023-02-23T11:42:12;91813.78;;;16.27;48.60
10958;BME280;5531;42.570;23.676;2023-02-23T11:44:42;91820.75;;;16.34;50.37
10958;BME280;5531;42.570;23.676;2023-02-23T11:47:21;91815.66;;;16.44;48.53
10958;BME280;5531;42.570;23.676;2023-02-23T11:49:50;91816.50;;;16.61;50.20
10958;BME280;5531;42.570;23.676;2023-02-23T11:52:23;91813.47;;;16.70;48.66
10958;BME280;5531;42.570;23.676;2023-02-23T11:54:55;91812.44;;;16.71;47.05
10958;BME280;5531;42.570;23.676;2023-02-23T11:57:27;91816.03;;;16.64;49.35
10958;BME280;5531;42.570;23.676;2023-02-23T12:00:03;91818.31;;;16.90;49.23
10958;BME280;5531;42.570;23.676;2023-02-23T12:02:46;91810.41;;;17.07;48.17
10958;BME280;5531;42.570;23.676;2023-02-23T12:05:21;91806.81;;;17.13;48.87
10958;BME280;5531;42.570;23.676;2023-02-23T12:07:56;91813.69;;;17.14;49.01
10958;BME280;5531;42.570;23.676;2023-02-23T12:10:31;91812.88;;;16.96;46.86
10958;BME280;5531;42.570;23.676;2023-02-23T12:13:10;91800.44;;;17.14;47.77
10958;BME280;5531;42.570;23.676;2023-02-23T12:15:44;91807.56;;;17.30;47.82
10958;BME280;5531;42.570;23.676;2023-02-23T12:18:29;91810.63;;;17.22;46.84
10958;BME280;5531;42.570;23.676;2023-02-23T12:21:09;91816.16;;;17.20;48.33
10958;BME280;5531;42.570;23.676;2023-02-23T12:23:41;91816.50;;;16.90;47.24
10958;BME280;5531;42.570;23.676;2023-02-23T12:26:16;91809.28;;;16.85;48.14
10958;BME280;5531;42.570;23.676;2023-02-23T12:28:51;91809.97;;;16.52;48.15
10958;BME280;5531;42.570;23.676;2023-02-23T12:31:27;91812.78;;;16.45;48.78
10958;BME280;5531;42.570;23.676;2023-02-23T12:34:07;91813.84;;;16.44;49.16
10958;BME280;5531;42.570;23.676;2023-02-23T12:36:41;91810.75;;;16.36;48.77
10958;BME280;5531;42.570;23.676;2023-02-23T12:39:16;91807.47;;;16.28;49.41
10958;BME280;5531;42.570;23.676;2023-02-23T12:41:56;91810.28;;;16.39;51.20
10958;BME280;5531;42.570;23.676;2023-02-23T12:44:34;91811.44;;;16.31;49.73
10958;BME280;5531;42.570;23.676;2023-02-23T12:47:20;91813.50;;;16.12;50.14
10958;BME280;5531;42.570;23.676;2023-02-23T12:50:02;91807.00;;;15.91;50.53
10958;BME280;5531;42.570;23.676;2023-02-23T12:52:41;91814.84;;;15.86;50.37
10958;BME280;5531;42.570;23.676;2023-02-23T12:55:13;91816.22;;;15.76;50.85
10958;BME280;5531;42.570;23.676;2023-02-23T12:57:49;91810.69;;;15.78;53.27
10958;BME280;5531;42.570;23.676;2023-02-23T13:00:32;91818.16;;;15.81;51.63
10958;BME280;5531;42.570;23.676;2023-02-23T13:06:23;91810.59;;;15.14;52.99
10958;BME280;5531;42.570;23.676;2023-02-23T13:09:05;91823.34;;;15.17;53.23
10958;BME280;5531;42.570;23.676;2023-02-23T13:12:05;91826.66;;;14.89;54.37
10958;BME280;5531;42.570;23.676;2023-02-23T13:14:43;91815.28;;;14.88;55.46
10958;BME280;5531;42.570;23.676;2023-02-23T13:17:36;91819.97;;;14.74;54.75
10958;BME280;5531;42.570;23.676;2023-02-23T13:20:11;91815.34;;;14.70;55.37
10958;BME280;5531;42.570;23.676;2023-02-23T13:22:49;91813.41;;;14.65;56.10
10958;BME280;5531;42.570;23.676;2023-02-23T13:25:28;91816.09;;;14.77;56.02
10958;BME280;5531;42.570;23.676;2023-02-23T13:28:03;91815.53;;;14.87;56.80
10958;BME280;5531;42.570;23.676;2023-02-23T13:30:34;91824.34;;;14.80;55.17
10958;BME280;5531;42.570;23.676;2023-02-23T13:33:17;91812.72;;;14.70;55.46
10958;BME280;5531;42.570;23.676;2023-02-23T13:35:48;91813.56;;;14.52;56.60
10958;BME280;5531;42.570;23.676;2023-02-23T13:38:24;91817.41;;;14.37;57.23
10958;BME280;5531;42.570;23.676;2023-02-23T13:41:05;91818.56;;;14.29;57.31
10958;BME280;5531;42.570;23.676;2023-02-23T13:43:40;91810.00;;;14.16;56.91
10958;BME280;5531;42.570;23.676;2023-02-23T13:46:27;91820.72;;;14.02;58.01
10958;BME280;5531;42.570;23.676;2023-02-23T13:49:03;91823.00;;;13.80;58.66
10958;BME280;5531;42.570;23.676;2023-02-23T13:51:40;91830.41;;;13.53;58.48
10958;BME280;5531;42.570;23.676;2023-02-23T13:54:24;91840.03;;;13.41;60.19